createdAt,value
2023-02-11T00:00:43.603Z,-2.47
2023-02-11T00:03:11.572Z,-2.47
2023-02-11T00:05:39.473Z,-2.56
2023-02-11T00:08:07.350Z,-2.64
2023-02-11T00:10:35.202Z,-2.72
2023-02-11T00:13:03.148Z,-2.82
2023-02-11T00:15:31.030Z,-2.85
2023-02-11T00:18:00.256Z,-2.82
2023-02-11T00:20:28.184Z,-2.85
2023-02-11T00:22:56.060Z,-2.79
2023-02-11T00:25:23.973Z,-2.80
2023-02-11T00:27:51.840Z,-2.73
2023-02-11T00:30:19.823Z,-2.76
2023-02-11T00:32:47.728Z,-2.72
2023-02-11T00:35:17.273Z,-2.73
2023-02-11T00:37:45.144Z,-2.78
2023-02-11T00:40:16.004Z,-2.88
2023-02-11T00:42:43.911Z,-2.88
2023-02-11T00:45:12.067Z,-2.81
2023-02-11T00:47:40.085Z,-2.72
2023-02-11T00:50:08.501Z,-2.72
2023-02-11T00:52:37.727Z,-2.69
2023-02-11T00:55:06.118Z,-2.74
2023-02-11T00:57:34.019Z,-2.78
2023-02-11T01:00:01.894Z,-2.73
2023-02-11T01:02:29.771Z,-2.76
2023-02-11T01:04:59.618Z,-2.86
2023-02-11T01:07:27.738Z,-2.92
2023-02-11T01:09:57.377Z,-2.98
2023-02-11T01:12:25.495Z,-2.99
2023-02-11T01:14:53.404Z,-3.07
2023-02-11T01:17:21.245Z,-3.09
2023-02-11T01:19:49.397Z,-3.17
2023-02-11T01:22:17.230Z,-3.31
2023-02-11T01:24:45.093Z,-3.33
2023-02-11T01:27:14.323Z,-3.22
2023-02-11T01:29:42.401Z,-3.24
2023-02-11T01:32:10.275Z,-3.26
2023-02-11T01:34:38.375Z,-3.10
2023-02-11T01:37:06.361Z,-3.12
2023-02-11T01:39:34.947Z,-3.16
2023-02-11T01:42:03.003Z,-3.22
2023-02-11T01:44:34.625Z,-3.28
2023-02-11T01:47:04.785Z,-3.23
2023-02-11T01:49:36.388Z,-3.17
2023-02-11T01:52:11.582Z,-3.11
2023-02-11T01:55:03.057Z,-2.93
2023-02-11T01:57:34.890Z,-2.97
2023-02-11T02:00:11.294Z,-3.09
2023-02-11T02:02:50.265Z,-2.97
2023-02-11T02:05:28.236Z,-2.88
2023-02-11T02:08:11.932Z,-2.85
2023-02-11T02:10:45.655Z,-2.96
2023-02-11T02:13:14.988Z,-3.01
2023-02-11T02:15:51.736Z,-3.07
2023-02-11T02:18:36.825Z,-3.08
2023-02-11T02:21:50.475Z,-3.02
2023-02-11T02:24:38.349Z,-3.06
2023-02-11T02:27:42.648Z,-2.94
2023-02-11T02:30:35.978Z,-2.94
2023-02-11T02:33:34.502Z,-2.85
2023-02-11T02:36:14.324Z,-2.73
2023-02-11T02:38:49.787Z,-2.64
2023-02-11T02:41:22.169Z,-2.56
2023-02-11T02:43:52.141Z,-2.56
2023-02-11T02:46:23.298Z,-2.54
2023-02-11T02:48:54.341Z,-2.45
2023-02-11T02:51:49.658Z,-2.33
2023-02-11T02:54:58.782Z,-2.34
2023-02-11T02:57:36.802Z,-2.38
2023-02-11T03:00:25.027Z,-2.54
2023-02-11T03:03:10.221Z,-2.61
2023-02-11T03:05:51.047Z,-2.64
2023-02-11T03:08:30.549Z,-2.60
2023-02-11T03:11:01.700Z,-2.54
2023-02-11T03:13:35.054Z,-2.53
2023-02-11T03:16:09.912Z,-2.66
2023-02-11T03:18:42.399Z,-2.64
2023-02-11T03:21:14.038Z,-2.59
2023-02-11T03:23:48.961Z,-2.57
2023-02-11T03:26:25.743Z,-2.53
2023-02-11T03:29:00.231Z,-2.52
2023-02-11T03:31:35.224Z,-2.63
2023-02-11T03:34:10.218Z,-2.60
2023-02-11T03:36:47.241Z,-2.61
2023-02-11T03:39:20.668Z,-2.57
2023-02-11T03:41:51.679Z,-2.49
2023-02-11T03:44:23.487Z,-2.42
2023-02-11T03:46:53.853Z,-2.44
2023-02-11T03:49:27.931Z,-2.46
2023-02-11T03:51:59.889Z,-2.48
2023-02-11T03:54:31.936Z,-2.46
2023-02-11T03:57:03.324Z,-2.58
2023-02-11T03:59:31.391Z,-2.72
2023-02-11T04:01:59.582Z,-2.68
2023-02-11T04:04:27.576Z,-2.60
2023-02-11T04:06:57.624Z,-2.51
2023-02-11T04:09:25.511Z,-2.45
2023-02-11T04:11:53.401Z,-2.44
2023-02-11T04:14:21.257Z,-2.49
2023-02-11T04:16:49.128Z,-2.34
2023-02-11T04:19:16.979Z,-2.25
2023-02-11T04:21:44.892Z,-2.14
2023-02-11T04:24:14.142Z,-2.09
2023-02-11T04:26:42.021Z,-2.05
2023-02-11T04:29:09.892Z,-2.08
2023-02-11T04:31:37.765Z,-2.05
2023-02-11T04:34:05.656Z,-2.10
2023-02-11T04:36:33.572Z,-2.01
2023-02-11T04:39:01.721Z,-1.90
2023-02-11T04:41:30.963Z,-1.86
2023-02-11T04:43:58.953Z,-1.85
2023-02-11T04:46:26.942Z,-1.82
2023-02-11T04:48:54.870Z,-1.81
2023-02-11T04:51:22.738Z,-1.80
2023-02-11T04:53:50.633Z,-1.80
2023-02-11T04:56:18.475Z,-1.79
2023-02-11T04:58:47.677Z,-1.79
2023-02-11T05:01:17.454Z,-1.78
2023-02-11T05:03:45.893Z,-1.86
2023-02-11T05:06:14.511Z,-1.89
2023-02-11T05:08:42.404Z,-1.82
2023-02-11T05:11:17.829Z,-1.81
2023-02-11T05:13:48.282Z,-1.76
2023-02-11T05:16:17.212Z,-1.80
2023-02-11T05:18:46.125Z,-1.76
2023-02-11T05:21:16.832Z,-1.71
2023-02-11T05:23:46.308Z,-1.70
2023-02-11T05:26:15.128Z,-1.70
2023-02-11T05:28:43.754Z,-1.66
2023-02-11T05:31:14.662Z,-1.67
2023-02-11T05:33:42.965Z,-1.70
2023-02-11T05:36:13.276Z,-1.64
2023-02-11T05:38:43.338Z,-1.72
2023-02-11T05:41:14.189Z,-1.63
2023-02-11T05:43:42.046Z,-1.57
2023-02-11T05:46:10.053Z,-1.63
2023-02-11T05:48:39.381Z,-1.70
2023-02-11T05:51:07.258Z,-1.63
2023-02-11T05:53:35.437Z,-1.68
2023-02-11T05:56:03.417Z,-1.60
2023-02-11T05:58:31.263Z,-1.52
2023-02-11T06:00:59.262Z,-1.56
2023-02-11T06:03:27.110Z,-1.44
2023-02-11T06:05:56.370Z,-1.53
2023-02-11T06:08:24.313Z,-1.40
2023-02-11T06:10:52.173Z,-1.44
2023-02-11T06:13:20.036Z,-1.40
2023-02-11T06:15:57.171Z,-1.41
2023-02-11T06:18:25.249Z,-1.34
2023-02-11T06:20:53.516Z,-1.44
2023-02-11T06:23:23.645Z,-1.31
2023-02-11T06:25:52.053Z,-1.33
2023-02-11T06:28:20.301Z,-1.33
2023-02-11T06:30:48.531Z,-1.36
2023-02-11T06:33:17.130Z,-1.37
2023-02-11T06:35:44.944Z,-1.38
2023-02-11T06:38:12.785Z,-1.30
2023-02-11T06:40:42.106Z,-1.23
2023-02-11T06:43:09.982Z,-1.24
2023-02-11T06:45:37.859Z,-1.22
2023-02-11T06:48:05.909Z,-1.10
2023-02-11T06:50:33.816Z,-1.10
2023-02-11T06:53:02.036Z,-1.08
2023-02-11T06:55:29.908Z,-1.03
2023-02-11T06:57:59.133Z,-1.16
2023-02-11T07:00:29.073Z,-1.13
2023-02-11T07:02:57.149Z,-1.13
2023-02-11T07:05:25.352Z,-1.06
2023-02-11T07:07:53.203Z,-0.99
2023-02-11T07:10:21.046Z,-0.94
2023-02-11T07:12:48.876Z,-0.89
2023-02-11T07:15:18.234Z,-0.88
2023-02-11T07:17:46.125Z,-0.85
2023-02-11T07:20:15.040Z,-0.79
2023-02-11T07:22:42.953Z,-0.81
2023-02-11T07:25:10.905Z,-0.76
2023-02-11T07:27:38.932Z,-0.76
2023-02-11T07:30:07.601Z,-0.80
2023-02-11T07:32:36.898Z,-0.67
2023-02-11T07:35:05.483Z,-0.59
2023-02-11T07:37:34.928Z,-0.59
2023-02-11T07:40:03.055Z,-0.58
2023-02-11T07:42:30.957Z,-0.61
2023-02-11T07:44:58.831Z,-0.53
2023-02-11T07:47:26.807Z,-0.68
2023-02-11T07:49:56.774Z,-0.46
2023-02-11T07:52:24.714Z,-0.49
2023-02-11T07:54:52.665Z,-0.43
2023-02-11T07:57:20.519Z,-0.23
2023-02-11T07:59:48.437Z,-0.24
2023-02-11T08:02:16.285Z,-0.09
2023-02-11T08:04:44.254Z,-0.15
2023-02-11T08:07:16.206Z,-0.30
2023-02-11T08:09:44.325Z,-0.37
2023-02-11T08:12:12.608Z,-0.33
2023-02-11T08:14:40.495Z,-0.24
2023-02-11T08:17:08.397Z,-0.06
2023-02-11T08:19:36.304Z,0.04
2023-02-11T08:22:04.299Z,0.09
2023-02-11T08:24:33.500Z,0.02
2023-02-11T08:27:01.432Z,0.15
2023-02-11T08:29:30.511Z,0.10
2023-02-11T08:31:58.427Z,0.22
2023-02-11T08:34:26.339Z,0.26
2023-02-11T08:36:54.265Z,0.25
2023-02-11T08:39:24.087Z,0.28
2023-02-11T08:41:56.652Z,0.38
2023-02-11T08:44:25.454Z,0.36
2023-02-11T08:46:53.918Z,0.38
2023-02-11T08:49:22.248Z,0.54
2023-02-11T08:51:50.777Z,0.62
2023-02-11T08:54:19.046Z,0.56
2023-02-11T08:56:47.120Z,0.51
2023-02-11T08:59:17.782Z,0.46
2023-02-11T09:01:47.248Z,0.39
2023-02-11T09:04:15.609Z,0.54
2023-02-11T09:06:43.505Z,0.69
2023-02-11T09:09:15.097Z,0.72
2023-02-11T09:11:44.990Z,0.71
2023-02-11T09:14:20.361Z,0.81
2023-02-11T09:16:49.563Z,1.01
2023-02-11T09:19:18.785Z,1.11
2023-02-11T09:21:46.722Z,1.29
2023-02-11T09:24:14.571Z,1.44
2023-02-11T09:26:43.961Z,1.58
2023-02-11T09:29:11.942Z,1.61
2023-02-11T09:31:41.377Z,1.69
2023-02-11T09:34:09.582Z,1.73
2023-02-11T09:36:40.080Z,1.79
2023-02-11T09:39:12.753Z,1.71
2023-02-11T09:42:04.240Z,1.73
2023-02-11T09:44:35.006Z,1.76
2023-02-11T09:47:08.158Z,1.75
2023-02-11T09:49:44.405Z,1.88
2023-02-11T09:52:28.906Z,1.72
2023-02-11T09:54:59.525Z,1.90
2023-02-11T09:57:33.521Z,2.12
2023-02-11T10:00:02.851Z,2.28
2023-02-11T10:02:46.526Z,2.31
2023-02-11T10:05:40.474Z,2.33
2023-02-11T10:08:17.400Z,2.20
2023-02-11T10:10:54.051Z,2.29
2023-02-11T10:13:48.716Z,2.34
2023-02-11T10:16:35.558Z,2.50
2023-02-11T10:19:22.077Z,2.37
2023-02-11T10:22:01.010Z,2.58
2023-02-11T10:24:29.773Z,2.53
2023-02-11T10:26:57.668Z,2.63
2023-02-11T10:29:37.527Z,2.73
2023-02-11T10:32:25.220Z,2.85
2023-02-11T10:35:01.686Z,2.82
2023-02-11T10:37:29.611Z,2.82
2023-02-11T10:39:57.799Z,2.98
2023-02-11T10:42:26.363Z,3.03
2023-02-11T10:45:01.324Z,3.12
2023-02-11T10:47:34.147Z,3.01
2023-02-11T10:50:22.329Z,3.12
2023-02-11T10:52:50.297Z,3.12
2023-02-11T10:55:21.730Z,3.35
2023-02-11T10:57:57.666Z,3.39
2023-02-11T11:00:37.929Z,3.38
2023-02-11T11:03:15.939Z,3.41
2023-02-11T11:05:50.944Z,3.54
2023-02-11T11:08:20.219Z,3.51
2023-02-11T11:11:03.753Z,3.49
2023-02-11T11:13:34.616Z,3.43
2023-02-11T11:16:21.165Z,3.47
2023-02-11T11:18:51.134Z,3.32
2023-02-11T11:21:24.295Z,3.48
2023-02-11T11:23:56.652Z,3.51
2023-02-11T11:26:27.780Z,3.62
2023-02-11T11:29:00.294Z,3.57
2023-02-11T11:31:33.197Z,3.67
2023-02-11T11:34:07.933Z,3.62
2023-02-11T11:36:41.340Z,3.64
2023-02-11T11:39:22.451Z,3.46
2023-02-11T11:42:01.039Z,3.40
2023-02-11T11:44:33.218Z,3.50
2023-02-11T11:47:26.682Z,3.48
2023-02-11T11:50:27.425Z,3.59
2023-02-11T11:53:04.191Z,3.74
2023-02-11T11:55:39.707Z,3.85
2023-02-11T11:58:17.455Z,4.08
2023-02-11T12:00:57.755Z,4.03
2023-02-11T12:04:07.042Z,3.93
2023-02-11T12:06:51.057Z,3.92
2023-02-11T12:09:33.749Z,3.87
2023-02-11T12:12:15.971Z,3.88
2023-02-11T12:14:57.128Z,3.91
2023-02-11T12:17:42.464Z,4.04
2023-02-11T12:20:24.655Z,4.05
2023-02-11T12:23:13.104Z,4.03
2023-02-11T12:25:53.632Z,4.11
2023-02-11T12:28:37.034Z,4.17
2023-02-11T12:31:23.551Z,4.29
2023-02-11T12:34:20.184Z,4.53
2023-02-11T12:37:04.238Z,4.69
2023-02-11T12:39:39.507Z,4.70
2023-02-11T12:42:51.839Z,4.79
2023-02-11T12:45:36.348Z,4.77
2023-02-11T12:48:22.657Z,4.69
2023-02-11T12:51:00.194Z,4.65
2023-02-11T12:53:59.970Z,4.62
2023-02-11T12:56:34.777Z,4.52
2023-02-11T12:59:21.328Z,4.57
2023-02-11T13:01:53.288Z,4.49
2023-02-11T13:04:29.800Z,4.48
2023-02-11T13:07:03.436Z,4.56
2023-02-11T13:09:36.792Z,4.51
2023-02-11T13:12:28.914Z,4.54
2023-02-11T13:15:04.465Z,4.73
2023-02-11T13:17:42.340Z,4.77
2023-02-11T13:20:26.463Z,4.75
2023-02-11T13:23:07.303Z,4.83
2023-02-11T13:25:43.983Z,4.87
2023-02-11T13:28:29.404Z,4.88
2023-02-11T13:31:03.457Z,4.90
2023-02-11T13:33:34.592Z,4.95
2023-02-11T13:36:15.773Z,4.80
2023-02-11T13:38:58.183Z,4.77
2023-02-11T13:41:31.487Z,4.79
2023-02-11T13:44:04.131Z,4.73
2023-02-11T13:46:54.085Z,4.92
2023-02-11T13:49:25.602Z,4.94
2023-02-11T13:51:55.659Z,4.98
2023-02-11T13:54:33.289Z,4.82
2023-02-11T13:57:24.479Z,4.85
2023-02-11T13:59:55.191Z,4.76
2023-02-11T14:02:45.944Z,4.68
2023-02-11T14:05:47.530Z,4.75
2023-02-11T14:08:38.456Z,4.72
2023-02-11T14:11:31.800Z,4.69
2023-02-11T14:14:15.955Z,4.68
2023-02-11T14:17:23.456Z,4.78
2023-02-11T14:19:53.188Z,4.68
2023-02-11T14:22:26.678Z,4.65
2023-02-11T14:24:58.509Z,4.67
2023-02-11T14:27:52.217Z,4.68
2023-02-11T14:31:00.152Z,4.66
2023-02-11T14:33:48.775Z,4.74
2023-02-11T14:36:59.255Z,4.70
2023-02-11T14:39:42.838Z,4.65
2023-02-11T14:42:20.826Z,4.66
2023-02-11T14:44:53.375Z,4.66
2023-02-11T14:47:26.507Z,4.64
2023-02-11T14:49:55.703Z,4.63
2023-02-11T14:52:31.063Z,4.64
2023-02-11T14:55:14.774Z,4.65
2023-02-11T14:57:44.521Z,4.68
2023-02-11T15:00:18.856Z,4.68
2023-02-11T15:02:46.964Z,4.62
2023-02-11T15:05:17.681Z,4.58
2023-02-11T15:07:50.620Z,4.61
2023-02-11T15:10:30.668Z,4.64
2023-02-11T15:13:01.986Z,4.73
2023-02-11T15:15:31.596Z,4.69
2023-02-11T15:18:03.810Z,4.62
2023-02-11T15:20:35.827Z,4.56
2023-02-11T15:23:09.937Z,4.56
2023-02-11T15:25:45.766Z,4.56
2023-02-11T15:28:24.244Z,4.54
2023-02-11T15:30:59.609Z,4.57
2023-02-11T15:33:30.044Z,4.50
2023-02-11T15:35:58.909Z,4.41
2023-02-11T15:38:29.853Z,4.52
2023-02-11T15:41:02.114Z,4.45
2023-02-11T15:43:43.789Z,4.41
2023-02-11T15:46:16.864Z,4.40
2023-02-11T15:48:48.430Z,4.41
2023-02-11T15:51:22.807Z,4.41
2023-02-11T15:53:56.832Z,4.35
2023-02-11T15:56:30.630Z,4.32
2023-02-11T15:59:01.517Z,4.36
2023-02-11T16:01:33.877Z,4.32
2023-02-11T16:04:03.562Z,4.34
2023-02-11T16:06:38.314Z,4.24
2023-02-11T16:09:25.533Z,4.19
2023-02-11T16:11:59.135Z,4.21
2023-02-11T16:14:33.664Z,4.20
2023-02-11T16:17:07.007Z,4.20
2023-02-11T16:19:36.660Z,4.12
2023-02-11T16:22:11.565Z,4.12
2023-02-11T16:24:41.080Z,4.10
2023-02-11T16:27:22.257Z,4.07
2023-02-11T16:29:52.071Z,4.02
2023-02-11T16:32:22.324Z,3.98
2023-02-11T16:34:51.623Z,4.02
2023-02-11T16:37:19.480Z,4.04
2023-02-11T16:39:48.744Z,3.98
2023-02-11T16:42:16.768Z,4.07
2023-02-11T16:44:44.672Z,4.06
2023-02-11T16:47:21.121Z,3.99
2023-02-11T16:49:49.266Z,3.99
2023-02-11T16:52:19.757Z,3.96
2023-02-11T16:54:49.193Z,3.94
2023-02-11T16:57:18.878Z,3.87
2023-02-11T16:59:47.080Z,3.94
2023-02-11T17:02:21.197Z,3.93
2023-02-11T17:04:50.978Z,3.94
2023-02-11T17:07:18.902Z,3.98
2023-02-11T17:09:48.174Z,3.85
2023-02-11T17:12:16.074Z,3.87
2023-02-11T17:14:44.004Z,3.88
2023-02-11T17:17:12.289Z,3.84
2023-02-11T17:19:41.214Z,3.84
2023-02-11T17:22:09.954Z,3.88
2023-02-11T17:24:38.013Z,3.88
2023-02-11T17:27:07.384Z,3.90
2023-02-11T17:29:35.299Z,3.86
2023-02-11T17:32:03.296Z,3.87
2023-02-11T17:34:32.366Z,3.83
2023-02-11T17:37:01.460Z,3.81
2023-02-11T17:39:29.356Z,3.87
2023-02-11T17:41:57.250Z,3.88
2023-02-11T17:44:26.442Z,3.79
2023-02-11T17:46:54.378Z,3.84
2023-02-11T17:49:22.294Z,3.74
2023-02-11T17:51:50.236Z,3.76
2023-02-11T17:54:20.182Z,3.68
2023-02-11T17:56:50.776Z,3.76
2023-02-11T17:59:18.964Z,3.71
2023-02-11T18:01:48.576Z,3.76
2023-02-11T18:04:19.467Z,3.65
2023-02-11T18:06:48.068Z,3.65
2023-02-11T18:09:16.007Z,3.68
2023-02-11T18:11:43.942Z,3.66
2023-02-11T18:14:12.477Z,3.66
2023-02-11T18:16:43.080Z,3.66
2023-02-11T18:19:13.416Z,3.62
2023-02-11T18:21:41.579Z,3.70
2023-02-11T18:24:09.585Z,3.69
2023-02-11T18:26:37.541Z,3.65
2023-02-11T18:29:06.952Z,3.59
2023-02-11T18:31:35.595Z,3.59
2023-02-11T18:34:03.663Z,3.52
2023-02-11T18:36:32.931Z,3.51
2023-02-11T18:39:00.808Z,3.55
2023-02-11T18:41:29.227Z,3.50
2023-02-11T18:44:02.697Z,3.44
2023-02-11T18:46:31.345Z,3.45
2023-02-11T18:48:59.464Z,3.35
2023-02-11T18:51:28.025Z,3.32
2023-02-11T18:53:57.244Z,3.32
2023-02-11T18:56:27.689Z,3.31
2023-02-11T18:58:56.566Z,3.38
2023-02-11T19:01:27.911Z,3.42
2023-02-11T19:03:58.316Z,3.45
2023-02-11T19:06:29.089Z,3.42
2023-02-11T19:09:01.408Z,3.39
2023-02-11T19:11:50.398Z,3.38
2023-02-11T19:14:22.128Z,3.34
2023-02-11T19:16:53.217Z,3.28
2023-02-11T19:19:23.157Z,3.31
2023-02-11T19:21:51.336Z,3.19
2023-02-11T19:24:21.173Z,3.17
2023-02-11T19:26:51.405Z,3.04
2023-02-11T19:29:20.067Z,3.08
2023-02-11T19:31:48.297Z,3.08
2023-02-11T19:34:19.895Z,3.03
2023-02-11T19:36:48.921Z,2.99
2023-02-11T19:39:16.938Z,2.98
2023-02-11T19:41:46.261Z,3.03
2023-02-11T19:44:16.156Z,3.09
2023-02-11T19:46:44.112Z,3.12
2023-02-11T19:49:15.811Z,3.16
2023-02-11T19:51:43.669Z,3.16
2023-02-11T19:54:11.695Z,3.22
2023-02-11T19:56:39.652Z,3.29
2023-02-11T19:59:09.054Z,3.31
2023-02-11T20:01:37.557Z,3.30
2023-02-11T20:04:05.880Z,3.40
2023-02-11T20:06:35.732Z,3.40
2023-02-11T20:09:07.146Z,3.35
2023-02-11T20:11:36.485Z,3.34
2023-02-11T20:14:06.717Z,3.34
2023-02-11T20:16:47.482Z,3.39
2023-02-11T20:19:18.487Z,3.42
2023-02-11T20:21:48.664Z,3.39
2023-02-11T20:24:17.388Z,3.41
2023-02-11T20:26:46.873Z,3.40
2023-02-11T20:29:15.304Z,3.41
2023-02-11T20:31:44.928Z,3.45
2023-02-11T20:34:12.995Z,3.48
2023-02-11T20:36:41.591Z,3.42
2023-02-11T20:39:17.108Z,3.37
2023-02-11T20:41:46.901Z,3.42
2023-02-11T20:44:15.729Z,3.42
2023-02-11T20:46:47.538Z,3.41
2023-02-11T20:49:18.918Z,3.41
2023-02-11T20:51:47.604Z,3.42
2023-02-11T20:54:18.446Z,3.37
2023-02-11T20:56:48.355Z,3.45
2023-02-11T20:59:17.590Z,3.43
2023-02-11T21:01:53.442Z,3.36
2023-02-11T21:04:23.823Z,3.35
2023-02-11T21:06:54.783Z,3.33
2023-02-11T21:09:26.316Z,3.40
2023-02-11T21:11:55.859Z,3.36
2023-02-11T21:14:26.247Z,3.45
2023-02-11T21:16:55.994Z,3.41
2023-02-11T21:19:23.878Z,3.32
2023-02-11T21:21:52.031Z,3.35
2023-02-11T21:24:19.925Z,3.31
2023-02-11T21:26:47.965Z,3.38
2023-02-11T21:29:16.136Z,3.37
2023-02-11T21:31:44.291Z,3.29
2023-02-11T21:34:14.270Z,3.23
2023-02-11T21:36:42.205Z,3.23
2023-02-11T21:39:10.119Z,3.29
2023-02-11T21:41:38.080Z,3.23
2023-02-11T21:44:06.123Z,3.19
2023-02-11T21:46:34.011Z,3.25
2023-02-11T21:49:01.984Z,3.20
2023-02-11T21:51:31.389Z,3.24
2023-02-11T21:54:01.939Z,3.18
2023-02-11T21:56:33.313Z,3.24
2023-02-11T21:59:01.655Z,3.22
2023-02-11T22:01:31.570Z,3.12
2023-02-11T22:03:59.913Z,3.02
2023-02-11T22:06:30.904Z,2.99
2023-02-11T22:09:03.295Z,3.01
2023-02-11T22:11:31.192Z,3.07
2023-02-11T22:13:59.502Z,3.04
2023-02-11T22:16:28.968Z,2.97
2023-02-11T22:18:58.562Z,2.88
2023-02-11T22:21:27.148Z,2.86
2023-02-11T22:23:56.412Z,2.98
2023-02-11T22:26:27.828Z,2.99
2023-02-11T22:28:57.024Z,2.93
2023-02-11T22:31:27.397Z,3.00
2023-02-11T22:33:55.783Z,3.03
2023-02-11T22:36:25.626Z,2.99
2023-02-11T22:38:54.834Z,3.00
2023-02-11T22:41:24.026Z,2.92
2023-02-11T22:43:53.362Z,2.92
2023-02-11T22:46:21.708Z,2.91
2023-02-11T22:48:50.320Z,2.90
2023-02-11T22:51:20.538Z,2.91
2023-02-11T22:53:52.663Z,2.83
2023-02-11T22:56:21.650Z,2.84
2023-02-11T22:58:50.218Z,2.86
2023-02-11T23:01:19.892Z,2.86
2023-02-11T23:03:47.845Z,2.84
2023-02-11T23:06:15.753Z,2.81
2023-02-11T23:08:44.707Z,2.82
2023-02-11T23:11:14.987Z,2.85
2023-02-11T23:13:43.959Z,2.83
2023-02-11T23:16:15.248Z,2.87
2023-02-11T23:18:46.717Z,2.90
2023-02-11T23:21:18.226Z,2.82
2023-02-11T23:23:47.938Z,2.79
2023-02-11T23:26:18.842Z,2.85
2023-02-11T23:28:48.148Z,2.87
2023-02-11T23:31:19.125Z,2.83
2023-02-11T23:33:50.099Z,2.67
2023-02-11T23:36:19.871Z,2.71
2023-02-11T23:38:48.589Z,2.67
2023-02-11T23:41:20.723Z,2.75
2023-02-11T23:43:51.691Z,2.78
2023-02-11T23:46:22.462Z,2.87
2023-02-11T23:48:53.116Z,2.78
2023-02-11T23:51:21.832Z,2.79
2023-02-11T23:53:52.522Z,2.80
2023-02-11T23:56:23.147Z,2.77
2023-02-11T23:58:53.010Z,2.75
